Time;durP1;ratioP1;P1;durP2;ratioP2;P2;SDS_P1;SDS_P2;PMS_P1;PMS_P2;Temp;Humidity;BMP_temperature;BMP_pressure;BME280_temperature;BME280_humidity;BME280_pressure;Samples;Min_cycle;Max_cycle;Signal;HPM_P1;HPM_P2
2022/01/16 00:00:18;;;;;;;29.35;16.13;;;2.40;99.90;;;;;;4987206;28;20216;-87
2022/01/16 00:05:31;;;;;;;34.80;17.25;;;2.20;99.90;;;;;;4989374;28;20555;-89
2022/01/16 00:07:59;;;;;;;30.65;17.20;;;2.50;99.90;;;;;;4991488;28;20244;-89
2022/01/16 00:10:27;;;;;;;33.17;17.02;;;2.30;99.90;;;;;;4988484;28;20221;-87
2022/01/16 00:12:59;;;;;;;32.25;18.45;;;2.40;99.90;;;;;;4985231;28;20252;-87
2022/01/16 00:15:26;;;;;;;26.10;16.45;;;1.90;99.90;;;;;;4984875;28;20229;-87
2022/01/16 00:17:56;;;;;;;30.65;18.05;;;1.80;99.90;;;;;;4984668;28;20233;-88
2022/01/16 00:20:27;;;;;;;32.90;17.25;;;2.40;99.90;;;;;;4991752;28;20225;-88
2022/01/16 00:22:55;;;;;;;32.05;15.82;;;2.40;99.90;;;;;;4983436;28;20204;-88
2022/01/16 00:25:23;;;;;;;27.77;15.88;;;2.20;99.90;;;;;;4985863;28;20570;-89
2022/01/16 00:27:52;;;;;;;31.35;16.50;;;1.80;99.90;;;;;;4984984;28;20228;-89
2022/01/16 00:30:20;;;;;;;28.55;16.73;;;2.10;99.90;;;;;;4984273;28;20213;-88
2022/01/16 00:32:47;;;;;;;31.52;16.42;;;2.20;99.90;;;;;;4985423;28;20228;-87
2022/01/16 00:35:18;;;;;;;28.25;16.05;;;1.80;99.90;;;;;;4986212;28;20273;-88
2022/01/16 00:37:47;;;;;;;29.80;15.82;;;2.20;99.90;;;;;;4996304;28;20231;-85
2022/01/16 00:40:20;;;;;;;31.73;17.13;;;2.50;99.90;;;;;;4985316;28;20530;-88
2022/01/16 00:42:55;;;;;;;29.08;17.83;;;2.50;99.90;;;;;;4984758;28;20228;-88
2022/01/16 00:45:22;;;;;;;29.75;16.67;;;1.80;99.90;;;;;;4984234;28;20216;-89
2022/01/16 00:47:50;;;;;;;32.90;17.10;;;2.20;99.90;;;;;;4983944;28;20237;-86
2022/01/16 00:50:17;;;;;;;30.65;17.33;;;2.00;99.90;;;;;;4984042;28;20290;-87
2022/01/16 00:52:45;;;;;;;34.20;18.98;;;1.90;99.90;;;;;;4987078;28;20233;-87
2022/01/16 00:55:13;;;;;;;30.80;17.10;;;1.70;99.90;;;;;;4986582;28;20238;-88
2022/01/16 00:57:41;;;;;;;35.90;19.52;;;2.20;99.90;;;;;;4983908;28;20228;-88
2022/01/16 01:00:11;;;;;;;34.75;18.58;;;2.30;99.90;;;;;;4983486;28;20235;-88
2022/01/16 01:02:39;;;;;;;30.85;17.63;;;2.30;99.90;;;;;;4984245;28;20243;-86
2022/01/16 01:05:09;;;;;;;32.05;18.02;;;2.40;99.90;;;;;;4986817;28;20355;-88
2022/01/16 01:07:38;;;;;;;28.33;15.77;;;2.40;99.90;;;;;;4992509;28;20231;-88
2022/01/16 01:10:10;;;;;;;29.38;17.70;;;2.50;99.90;;;;;;4989091;28;20256;-89
2022/01/16 01:12:52;;;;;;;31.20;17.85;;;2.40;99.90;;;;;;4985434;28;20248;-88
2022/01/16 01:15:25;;;;;;;29.67;16.58;;;2.40;99.90;;;;;;4986886;28;20539;-88
2022/01/16 01:17:53;;;;;;;29.67;16.45;;;2.40;99.90;;;;;;4984782;28;20259;-89
2022/01/16 01:20:25;;;;;;;32.53;18.50;;;2.30;99.90;;;;;;4983509;28;20208;-88
2022/01/16 01:22:53;;;;;;;33.80;17.67;;;2.50;99.90;;;;;;4988037;28;20211;-88
2022/01/16 01:25:24;;;;;;;34.85;19.40;;;2.70;99.90;;;;;;4989392;28;20213;-89
2022/01/16 01:27:54;;;;;;;31.40;19.48;;;2.60;99.90;;;;;;4988297;28;20228;-87
2022/01/16 01:30:24;;;;;;;31.40;16.55;;;2.50;99.90;;;;;;4986963;28;20619;-87
2022/01/16 01:32:53;;;;;;;34.97;18.00;;;2.70;99.90;;;;;;4987494;28;20768;-86
2022/01/16 01:35:20;;;;;;;33.15;17.55;;;2.90;99.90;;;;;;4997198;28;20201;-87
2022/01/16 01:41:36;;;;;;;36.35;18.73;;;2.60;99.90;;;;;;4998621;28;20220;-85
2022/01/16 01:54:21;;;;;;;38.42;22.90;;;3.00;99.90;;;;;;4826230;29;20274;-84
2022/01/16 01:57:28;;;;;;;31.75;18.20;;;2.60;99.90;;;;;;4846056;29;20304;-84
2022/01/16 02:00:38;;;;;;;36.15;18.80;;;2.60;99.90;;;;;;4807336;29;20249;-84
2022/01/16 02:06:47;;;;;;;;;;;;;;;;;;;;;
2022/01/16 02:12:47;;;;;;;35.63;19.17;;;2.70;99.90;;;;;;4935847;29;20218;-84
2022/01/16 02:28:58;;;;;;;30.88;18.15;;;2.70;99.90;;;;;;4995212;28;20247;-85
2022/01/16 02:31:56;;;;;;;;;;;;;;;;;;;;;
2022/01/16 02:34:42;;;;;;;34.80;20.25;;;2.80;99.90;;;;;;5001018;28;20211;-86
2022/01/16 02:50:45;;;;;;;31.42;18.23;;;2.90;99.90;;;;;;5000519;28;20259;-84
2022/01/16 03:03:20;;;;;;;32.50;17.80;;;2.40;99.90;;;;;;4977824;28;20692;-84
2022/01/16 03:06:19;;;;;;;32.80;19.08;;;2.50;99.90;;;;;;4967061;28;20263;-84
2022/01/16 03:09:55;;;;;;;39.70;20.33;;;2.50;99.90;;;;;;4982931;28;20331;-84
2022/01/16 03:15:31;;;;;;;35.90;20.17;;;2.00;99.90;;;;;;5000329;28;20638;-84
2022/01/16 03:25:09;;;;;;;41.10;20.25;;;2.00;99.90;;;;;;4978713;28;20223;-84
2022/01/16 03:47:03;;;;;;;;;;;;;;;;;;;;;
2022/01/16 03:53:18;;;;;;;39.65;21.25;;;2.00;99.90;;;;;;4941893;29;20264;-84
2022/01/16 04:36:32;;;;;;;29.50;17.88;;;2.30;99.90;;;;;;4897305;29;20300;-84
2022/01/16 04:39:31;;;;;;;31.13;16.63;;;2.30;99.90;;;;;;4790443;30;20211;-84
2022/01/16 04:48:42;;;;;;;35.13;19.58;;;2.50;99.90;;;;;;4916379;29;20214;-84
2022/01/16 04:51:28;;;;;;;32.55;18.75;;;2.30;99.90;;;;;;4916108;29;20290;-83
2022/01/16 05:08:17;;;;;;;28.40;17.65;;;2.40;99.90;;;;;;4730827;30;20232;-84
2022/01/16 05:18:50;;;;;;;26.10;16.35;;;2.60;99.90;;;;;;4772406;30;20255;-84
2022/01/16 05:32:49;;;;;;;;;;;;;;;;;;;;;
2022/01/16 05:45:33;;;;;;;27.55;15.27;;;1.80;99.90;;;;;;4840193;29;20273;-84
2022/01/16 05:48:36;;;;;;;29.52;19.05;;;1.70;99.90;;;;;;4844071;29;20241;-84
2022/01/16 05:52:02;;;;;;;30.48;17.83;;;1.70;99.90;;;;;;4844653;29;20244;-84
2022/01/16 06:01:45;;;;;;;30.95;16.77;;;1.50;99.90;;;;;;4920263;29;20203;-84
2022/01/16 06:19:32;;;;;;;26.02;17.15;;;1.30;99.90;;;;;;4993530;23;20232;-85
2022/01/16 06:22:29;;;;;;;28.80;19.33;;;0.80;99.90;;;;;;4975184;28;20300;-85
2022/01/16 06:31:51;;;;;;;29.55;17.63;;;1.00;99.90;;;;;;4978731;28;20689;-84
2022/01/16 06:43:55;;;;;;;;;;;;;;;;;;;;;
2022/01/16 06:59:38;;;;;;;27.35;17.88;;;1.40;99.90;;;;;;4951889;28;20213;-84
2022/01/16 07:06:49;;;;;;;25.42;16.05;;;1.20;99.90;;;;;;4933532;28;20212;-83
2022/01/16 07:19:15;;;;;;;28.42;18.00;;;1.70;99.90;;;;;;4968237;28;20240;-83
2022/01/16 07:38:55;;;;;;;27.63;16.45;;;1.30;99.90;;;;;;5010484;23;20247;-87
2022/01/16 07:41:22;;;;;;;27.65;17.10;;;1.20;99.90;;;;;;4987431;28;20260;-87
2022/01/16 07:43:50;;;;;;;26.15;16.77;;;1.40;99.90;;;;;;4986184;28;20204;-87
2022/01/16 07:46:18;;;;;;;28.70;18.30;;;1.40;99.90;;;;;;4985045;28;20244;-87
2022/01/16 07:48:45;;;;;;;29.00;17.67;;;1.30;99.90;;;;;;4985533;28;20225;-88
2022/01/16 07:51:13;;;;;;;26.85;16.73;;;1.40;99.90;;;;;;4984629;28;20291;-88
2022/01/16 07:53:41;;;;;;;24.83;17.17;;;1.30;99.90;;;;;;4984582;28;20259;-87
2022/01/16 07:56:07;;;;;;;24.23;15.57;;;1.40;99.90;;;;;;4986257;28;20209;-88
2022/01/16 07:58:36;;;;;;;29.83;18.05;;;1.30;99.90;;;;;;4986558;28;20283;-88
2022/01/16 08:01:03;;;;;;;27.50;17.77;;;1.30;99.90;;;;;;4988113;28;20217;-87
2022/01/16 08:03:30;;;;;;;27.08;17.73;;;1.40;99.90;;;;;;4999678;28;20262;-87
2022/01/16 08:05:57;;;;;;;25.20;17.00;;;1.40;99.90;;;;;;4999242;28;20207;-84
2022/01/16 08:08:26;;;;;;;23.02;14.88;;;1.40;99.90;;;;;;4998728;28;20236;-88
2022/01/16 08:10:53;;;;;;;26.45;14.73;;;1.50;99.90;;;;;;4995272;28;20204;-86
2022/01/16 08:13:20;;;;;;;24.35;14.93;;;1.40;99.90;;;;;;4998293;28;20239;-88
2022/01/16 08:15:47;;;;;;;24.08;14.43;;;1.30;99.90;;;;;;4988198;28;20223;-88
2022/01/16 08:18:14;;;;;;;25.00;15.73;;;1.40;99.90;;;;;;4986758;28;20237;-87
2022/01/16 08:20:41;;;;;;;24.83;15.80;;;1.50;99.90;;;;;;4986687;28;20621;-87
2022/01/16 08:23:07;;;;;;;26.55;17.25;;;1.20;99.90;;;;;;4986004;28;20236;-88
2022/01/16 08:25:36;;;;;;;26.15;16.20;;;1.40;99.90;;;;;;4986221;28;20281;-87
2022/01/16 08:28:03;;;;;;;30.92;18.75;;;1.40;99.90;;;;;;4985185;28;20228;-88
2022/01/16 08:30:30;;;;;;;26.25;18.00;;;1.30;99.90;;;;;;4984110;28;20276;-88
2022/01/16 08:32:57;;;;;;;28.92;16.73;;;1.40;99.90;;;;;;4985704;28;20319;-87
2022/01/16 08:35:24;;;;;;;31.83;18.58;;;0.60;99.90;;;;;;4986741;28;20273;-87
2022/01/16 08:37:51;;;;;;;30.40;18.17;;;1.20;99.90;;;;;;4985195;28;20232;-88
2022/01/16 08:40:18;;;;;;;33.72;18.48;;;1.40;99.90;;;;;;4996643;28;20232;-87
2022/01/16 08:42:46;;;;;;;27.40;17.13;;;1.40;99.90;;;;;;4993241;28;20244;-87
2022/01/16 08:45:13;;;;;;;28.65;17.20;;;1.60;99.90;;;;;;4986268;28;20613;-87
2022/01/16 08:47:40;;;;;;;27.33;17.60;;;1.80;99.90;;;;;;4986055;28;20316;-87
2022/01/16 08:50:09;;;;;;;32.28;19.02;;;1.80;99.90;;;;;;4985700;28;20212;-87
2022/01/16 08:52:38;;;;;;;28.60;17.98;;;1.80;99.90;;;;;;4985306;28;20208;-87
2022/01/16 08:55:06;;;;;;;21.60;13.57;;;2.30;99.90;;;;;;4985241;28;20261;-88
2022/01/16 08:57:33;;;;;;;26.30;16.80;;;2.30;99.90;;;;;;4985223;28;20231;-88
2022/01/16 09:00:01;;;;;;;27.70;17.70;;;2.20;99.90;;;;;;4984460;28;20295;-88
2022/01/16 09:02:28;;;;;;;30.67;18.95;;;2.20;99.90;;;;;;4992828;28;20208;-83
2022/01/16 09:04:55;;;;;;;30.40;18.40;;;2.00;99.90;;;;;;4993501;28;20684;-87
2022/01/16 09:07:22;;;;;;;28.90;18.42;;;2.10;99.90;;;;;;4992949;28;20216;-87
2022/01/16 09:09:48;;;;;;;30.23;19.30;;;1.90;99.90;;;;;;4993363;28;20665;-88
2022/01/16 09:12:15;;;;;;;30.33;18.13;;;2.10;99.90;;;;;;4987251;28;20236;-87
2022/01/16 09:14:43;;;;;;;28.25;19.05;;;1.90;99.90;;;;;;4982269;28;20225;-88
2022/01/16 09:17:11;;;;;;;27.40;18.30;;;2.00;99.90;;;;;;4991194;28;20260;-86
2022/01/16 09:19:38;;;;;;;29.80;19.55;;;2.10;99.90;;;;;;4997384;28;20204;-87
2022/01/16 09:22:05;;;;;;;31.33;18.38;;;2.00;99.90;;;;;;4988695;28;20212;-88
2022/01/16 09:24:33;;;;;;;27.40;16.73;;;2.20;99.90;;;;;;4984885;28;20232;-88
2022/01/16 09:27:00;;;;;;;26.92;18.05;;;2.40;99.90;;;;;;4985517;28;20207;-88
2022/01/16 09:29:27;;;;;;;29.40;17.98;;;2.30;99.90;;;;;;4985066;28;20232;-88
2022/01/16 09:31:53;;;;;;;27.30;17.50;;;2.00;99.90;;;;;;4985478;28;20300;-88
2022/01/16 09:34:22;;;;;;;25.92;16.50;;;2.00;99.90;;;;;;4993824;28;20230;-87
2022/01/16 09:36:49;;;;;;;30.20;19.02;;;2.00;99.90;;;;;;4990270;28;20218;-88
2022/01/16 09:39:16;;;;;;;26.52;16.45;;;2.60;99.90;;;;;;4986649;28;20264;-88
2022/01/16 09:41:43;;;;;;;27.17;17.40;;;2.10;99.90;;;;;;4987056;28;20246;-87
2022/01/16 09:44:10;;;;;;;28.05;19.10;;;2.70;99.90;;;;;;4987844;28;20232;-87
2022/01/16 09:46:37;;;;;;;32.28;18.98;;;2.50;99.90;;;;;;4987109;28;20657;-87
2022/01/16 09:49:04;;;;;;;26.48;18.10;;;2.60;99.90;;;;;;4987320;28;20288;-88
2022/01/16 09:51:33;;;;;;;27.10;17.75;;;2.70;99.90;;;;;;4987314;28;20276;-87
2022/01/16 09:54:00;;;;;;;31.10;20.00;;;2.30;99.90;;;;;;4987665;28;20331;-88
2022/01/16 09:56:27;;;;;;;26.02;17.52;;;2.70;99.90;;;;;;4986287;28;20643;-87
2022/01/16 09:58:54;;;;;;;23.88;16.75;;;2.90;99.90;;;;;;4987304;28;20323;-87
2022/01/16 10:01:21;;;;;;;29.67;17.77;;;2.80;99.90;;;;;;4988225;28;20244;-86
2022/01/16 10:03:48;;;;;;;26.33;17.70;;;2.60;99.90;;;;;;4987965;28;20205;-87
2022/01/16 10:06:17;;;;;;;24.77;17.23;;;3.00;99.90;;;;;;4992290;28;20248;-87
2022/01/16 10:08:49;;;;;;;27.90;17.85;;;3.10;99.90;;;;;;4996522;28;20742;-88
2022/01/16 10:11:29;;;;;;;26.98;17.40;;;3.10;99.90;;;;;;4993246;28;20241;-87
2022/01/16 10:14:00;;;;;;;24.83;17.50;;;3.30;99.90;;;;;;4994564;28;20300;-87
2022/01/16 10:16:29;;;;;;;24.05;17.10;;;3.20;99.90;;;;;;4988946;28;20249;-87
2022/01/16 10:18:57;;;;;;;29.13;19.27;;;3.00;99.90;;;;;;4987173;28;20316;-87
2022/01/16 10:21:35;;;;;;;25.02;16.45;;;2.60;99.90;;;;;;4986819;28;20690;-88
2022/01/16 10:24:22;;;;;;;29.33;18.33;;;3.10;99.90;;;;;;4988643;28;20677;-88
2022/01/16 10:27:10;;;;;;;28.73;17.98;;;3.10;99.90;;;;;;4988199;28;20264;-88
2022/01/16 10:29:38;;;;;;;29.42;17.33;;;3.00;99.90;;;;;;4985679;28;20241;-88
2022/01/16 10:32:13;;;;;;;25.58;16.70;;;2.50;99.90;;;;;;4986672;28;20256;-87
2022/01/16 10:34:40;;;;;;;27.58;19.65;;;3.30;99.90;;;;;;4993828;28;20228;-87
2022/01/16 10:37:23;;;;;;;27.17;17.48;;;2.70;99.90;;;;;;4989296;28;20283;-89
2022/01/16 10:40:04;;;;;;;25.15;18.38;;;3.40;99.90;;;;;;4991310;28;20198;-89
2022/01/16 10:42:32;;;;;;;28.52;17.58;;;3.10;99.90;;;;;;4983522;28;20197;-88
2022/01/16 10:45:03;;;;;;;26.98;17.55;;;3.60;99.90;;;;;;4984300;28;20212;-89
2022/01/16 10:47:33;;;;;;;25.00;16.92;;;3.50;99.90;;;;;;4984281;28;20269;-88
2022/01/16 10:50:08;;;;;;;25.73;16.77;;;3.80;99.90;;;;;;4983899;28;20244;-88
2022/01/16 10:52:51;;;;;;;25.88;16.70;;;3.80;99.90;;;;;;4984912;28;20299;-88
2022/01/16 10:55:21;;;;;;;24.42;16.63;;;3.70;99.90;;;;;;4986330;28;20376;-88
2022/01/16 10:57:51;;;;;;;29.35;17.73;;;3.80;99.90;;;;;;4989928;28;20257;-89
2022/01/16 11:00:22;;;;;;;28.33;17.60;;;3.60;99.90;;;;;;4994077;28;20218;-89
2022/01/16 11:02:51;;;;;;;30.83;18.48;;;4.10;99.90;;;;;;4999734;28;20202;-89
2022/01/16 11:05:20;;;;;;;25.90;17.40;;;4.10;99.90;;;;;;4999618;28;20205;-88
2022/01/16 11:07:55;;;;;;;26.90;16.65;;;4.40;99.90;;;;;;4994457;28;20284;-89
2022/01/16 11:10:27;;;;;;;30.08;18.65;;;4.40;99.90;;;;;;4993714;28;20236;-88
2022/01/16 11:12:55;;;;;;;33.10;21.25;;;4.10;99.90;;;;;;4999177;28;20245;-88
2022/01/16 11:15:23;;;;;;;27.05;19.23;;;4.10;99.90;;;;;;4995922;28;20217;-88
2022/01/16 11:17:51;;;;;;;30.40;19.00;;;4.00;99.90;;;;;;4988757;28;20237;-88
2022/01/16 11:20:26;;;;;;;29.83;18.95;;;3.90;99.90;;;;;;4985525;28;20233;-88
2022/01/16 11:22:59;;;;;;;27.00;18.33;;;4.10;99.90;;;;;;4989475;28;20202;-87
2022/01/16 11:25:33;;;;;;;25.70;17.02;;;4.30;99.90;;;;;;4986586;28;20195;-89
2022/01/16 11:28:03;;;;;;;31.70;19.10;;;4.50;99.90;;;;;;4988908;28;20257;-87
2022/01/16 11:30:30;;;;;;;31.08;20.27;;;4.20;99.90;;;;;;4997512;28;20197;-87
2022/01/16 11:32:58;;;;;;;34.63;19.75;;;4.20;99.90;;;;;;4987448;28;20190;-88
2022/01/16 11:35:26;;;;;;;34.38;20.38;;;4.30;99.90;;;;;;4984900;28;20568;-88
2022/01/16 11:37:54;;;;;;;28.40;19.60;;;3.70;99.90;;;;;;4984722;28;20334;-87
2022/01/16 11:40:28;;;;;;;30.65;19.73;;;3.80;99.90;;;;;;4986914;28;20554;-89
2022/01/16 11:43:19;;;;;;;29.13;19.00;;;4.50;99.90;;;;;;4989185;28;20229;-88
2022/01/16 11:46:05;;;;;;;28.02;20.00;;;4.50;99.90;;;;;;4987802;28;20220;-88
2022/01/16 11:48:40;;;;;;;29.48;18.98;;;4.50;99.90;;;;;;4984163;28;20658;-88
2022/01/16 11:51:51;;;;;;;30.23;19.52;;;4.60;99.90;;;;;;4986967;28;20197;-87
2022/01/16 11:54:25;;;;;;;36.97;22.20;;;4.80;99.90;;;;;;4984798;28;20215;-88
2022/01/16 11:57:00;;;;;;;33.83;21.88;;;4.20;99.90;;;;;;4984060;28;20247;-88
2022/01/16 11:59:28;;;;;;;30.98;19.92;;;4.00;99.90;;;;;;4983952;28;20332;-88
2022/01/16 12:01:58;;;;;;;20.73;11.65;;;4.50;99.90;;;;;;4983418;28;20289;-88
2022/01/16 12:04:51;;;;;;;31.98;19.10;;;4.90;99.90;;;;;;4984549;28;20205;-88
2022/01/16 12:07:47;;;;;;;28.65;16.02;;;4.90;99.90;;;;;;4983885;28;20303;-88
2022/01/16 12:10:43;;;;;;;34.30;20.77;;;4.80;99.90;;;;;;4985526;28;20213;-88
2022/01/16 12:13:45;;;;;;;25.65;12.77;;;4.70;99.90;;;;;;4994006;28;20182;-88
2022/01/16 12:16:32;;;;;;;34.67;19.38;;;4.70;99.90;;;;;;4998744;28;20244;-88
2022/01/16 12:19:47;;;;;;;36.60;22.10;;;4.40;99.90;;;;;;4998290;28;20257;-87
2022/01/16 12:22:17;;;;;;;32.80;21.02;;;4.60;99.90;;;;;;4987968;28;20194;-88
2022/01/16 12:24:50;;;;;;;31.50;21.20;;;4.60;99.90;;;;;;4989860;28;20249;-88
2022/01/16 12:27:46;;;;;;;33.25;20.02;;;4.80;99.90;;;;;;4995767;28;20522;-88
2022/01/16 12:30:16;;;;;;;31.90;19.10;;;4.80;99.90;;;;;;4995229;28;20602;-89
2022/01/16 12:32:54;;;;;;;31.75;18.45;;;4.80;99.90;;;;;;4988857;28;20631;-87
2022/01/16 12:36:08;;;;;;;30.85;17.90;;;5.00;99.90;;;;;;4987376;28;20213;-88
2022/01/16 12:38:41;;;;;;;33.10;18.90;;;5.00;99.90;;;;;;4995650;28;20587;-88
2022/01/16 12:41:09;;;;;;;29.42;17.95;;;4.80;99.90;;;;;;4987024;28;20208;-88
2022/01/16 12:43:45;;;;;;;39.63;19.55;;;5.10;99.90;;;;;;4985579;28;20229;-87
2022/01/16 12:46:14;;;;;;;30.27;17.67;;;5.00;99.90;;;;;;4987255;28;20200;-88
2022/01/16 12:48:42;;;;;;;26.15;15.00;;;5.20;99.90;;;;;;4987062;28;20767;-87
2022/01/16 12:51:09;;;;;;;25.95;15.43;;;5.30;99.90;;;;;;4986175;28;20228;-87
2022/01/16 12:53:41;;;;;;;26.33;17.05;;;5.30;99.90;;;;;;4987318;28;20217;-87
2022/01/16 12:56:23;;;;;;;22.40;14.20;;;5.30;99.90;;;;;;4984075;28;20222;-86
2022/01/16 12:58:53;;;;;;;25.98;15.85;;;5.50;99.90;;;;;;4985191;28;20222;-88
2022/01/16 13:01:21;;;;;;;22.90;13.55;;;5.10;99.90;;;;;;4994280;28;20220;-87
2022/01/16 13:03:48;;;;;;;20.63;11.98;;;5.50;99.90;;;;;;4988219;28;20210;-88
2022/01/16 13:06:20;;;;;;;19.75;11.85;;;5.20;99.90;;;;;;4986727;28;20228;-88
2022/01/16 13:08:59;;;;;;;17.63;10.50;;;5.40;99.90;;;;;;4985188;28;20600;-86
2022/01/16 13:11:28;;;;;;;15.50;9.75;;;5.80;99.90;;;;;;4984366;28;20194;-87
2022/01/16 13:13:56;;;;;;;15.52;10.05;;;5.40;99.90;;;;;;4985365;28;20257;-87
2022/01/16 13:16:26;;;;;;;19.02;11.27;;;5.70;99.90;;;;;;4987847;28;20222;-88
2022/01/16 13:19:05;;;;;;;17.33;9.48;;;5.70;99.90;;;;;;4999825;28;20359;-87
2022/01/16 13:21:46;;;;;;;15.20;9.30;;;5.70;99.90;;;;;;4993581;28;20198;-87
2022/01/16 13:24:25;;;;;;;15.80;9.48;;;5.60;99.90;;;;;;4999834;28;20242;-87
2022/01/16 13:26:52;;;;;;;17.50;10.38;;;5.60;99.90;;;;;;4997166;28;20186;-87
2022/01/16 13:29:21;;;;;;;19.65;11.10;;;5.60;99.90;;;;;;4991079;28;20261;-88
2022/01/16 13:34:42;;;;;;;20.02;11.55;;;5.20;99.90;;;;;;4992678;28;20202;-88
2022/01/16 13:37:14;;;;;;;16.35;9.15;;;5.40;99.90;;;;;;4992574;28;20680;-88
2022/01/16 13:39:46;;;;;;;14.98;9.35;;;5.50;99.90;;;;;;4988794;28;20214;-88
2022/01/16 13:42:29;;;;;;;15.85;9.50;;;5.60;99.90;;;;;;4989380;28;20220;-88
2022/01/16 13:45:19;;;;;;;20.15;9.32;;;5.50;99.90;;;;;;4990589;28;20211;-88
2022/01/16 13:47:59;;;;;;;13.95;9.52;;;5.70;99.90;;;;;;4991283;28;20262;-87
2022/01/16 13:50:28;;;;;;;20.23;10.55;;;5.50;99.90;;;;;;4988481;28;20293;-87
2022/01/16 13:52:57;;;;;;;18.00;10.43;;;5.50;99.90;;;;;;4990228;28;20759;-88
2022/01/16 13:55:25;;;;;;;20.80;11.43;;;5.10;99.90;;;;;;5000064;28;20786;-88
2022/01/16 13:57:52;;;;;;;17.83;9.70;;;5.70;99.90;;;;;;5001266;28;20297;-88
2022/01/16 14:00:28;;;;;;;17.58;9.93;;;5.30;99.90;;;;;;4997272;28;20306;-87
2022/01/16 14:03:13;;;;;;;17.20;10.52;;;5.70;99.90;;;;;;4997895;28;20233;-87
2022/01/16 14:05:45;;;;;;;17.83;9.18;;;5.80;99.90;;;;;;5004330;28;20191;-86
2022/01/16 14:08:21;;;;;;;15.95;10.15;;;5.80;99.90;;;;;;5003056;28;20236;-87
2022/01/16 14:10:49;;;;;;;15.98;10.20;;;5.80;99.90;;;;;;4995345;28;20196;-87
2022/01/16 14:13:18;;;;;;;15.32;9.45;;;5.90;99.90;;;;;;5001974;28;20231;-87
2022/01/16 14:16:07;;;;;;;16.70;9.73;;;5.80;99.90;;;;;;5002960;28;20218;-87
2022/01/16 14:19:05;;;;;;;17.75;10.02;;;5.90;99.90;;;;;;4993052;28;20235;-88
2022/01/16 14:24:18;;;;;;;17.65;9.82;;;5.90;99.90;;;;;;4990659;28;20210;-87
2022/01/16 14:26:50;;;;;;;17.58;9.70;;;6.20;99.90;;;;;;4993875;28;20211;-87
2022/01/16 14:29:19;;;;;;;14.40;8.43;;;5.90;99.90;;;;;;4990523;28;20322;-87
2022/01/16 14:31:48;;;;;;;16.88;9.60;;;5.50;99.90;;;;;;4989907;28;20253;-86
2022/01/16 14:34:16;;;;;;;20.98;10.45;;;6.10;99.90;;;;;;4990001;28;20637;-86
2022/01/16 14:36:44;;;;;;;15.73;8.75;;;6.00;99.90;;;;;;4990577;28;20231;-86
2022/01/16 14:39:13;;;;;;;13.40;8.88;;;5.50;99.90;;;;;;4987467;28;20235;-88
2022/01/16 14:41:45;;;;;;;13.48;9.10;;;6.00;99.90;;;;;;4988634;28;20215;-88
2022/01/16 14:44:13;;;;;;;19.45;10.13;;;5.80;99.90;;;;;;4988825;28;20211;-88
2022/01/16 14:46:41;;;;;;;14.75;9.88;;;5.80;99.90;;;;;;4987684;28;20218;-88
2022/01/16 14:49:09;;;;;;;17.48;10.95;;;5.80;99.90;;;;;;4988016;28;20578;-87
2022/01/16 14:51:36;;;;;;;17.60;10.80;;;5.80;99.90;;;;;;4986702;28;20207;-87
2022/01/16 14:54:18;;;;;;;18.00;9.10;;;5.90;99.90;;;;;;4985695;28;20636;-87
2022/01/16 14:56:45;;;;;;;14.80;9.13;;;6.00;99.90;;;;;;4985460;28;20235;-87
2022/01/16 14:59:13;;;;;;;15.15;10.05;;;5.70;99.90;;;;;;4985400;28;20330;-88
2022/01/16 15:01:42;;;;;;;14.95;10.13;;;6.00;99.90;;;;;;4988726;28;20198;-88
2022/01/16 15:04:11;;;;;;;17.08;10.45;;;5.60;99.90;;;;;;4986434;28;20673;-88
2022/01/16 15:06:39;;;;;;;14.95;9.95;;;5.60;99.90;;;;;;4986829;28;20230;-88
2022/01/16 15:09:06;;;;;;;16.83;9.27;;;5.90;99.90;;;;;;4983086;28;20230;-89
2022/01/16 15:11:34;;;;;;;12.75;8.95;;;5.90;99.90;;;;;;4988509;28;20234;-88
2022/01/16 15:14:01;;;;;;;13.55;8.90;;;6.00;99.90;;;;;;4985712;28;20215;-88
2022/01/16 15:16:31;;;;;;;13.80;9.25;;;5.60;99.90;;;;;;4984883;28;20655;-89
2022/01/16 15:19:00;;;;;;;16.83;9.45;;;6.10;99.90;;;;;;4988400;28;20261;-87
2022/01/16 15:21:33;;;;;;;12.90;9.15;;;6.00;99.90;;;;;;4997238;28;20203;-87
2022/01/16 15:24:01;;;;;;;15.70;8.95;;;5.60;99.90;;;;;;4983943;28;20204;-89
2022/01/16 15:26:28;;;;;;;19.15;9.75;;;6.00;99.90;;;;;;4994710;28;20263;-87
2022/01/16 15:28:56;;;;;;;15.00;9.43;;;6.10;99.90;;;;;;4992165;28;20251;-88
2022/01/16 15:31:23;;;;;;;11.55;7.97;;;5.80;99.90;;;;;;4984951;28;20278;-87
2022/01/16 15:33:50;;;;;;;15.10;9.63;;;6.00;99.90;;;;;;4986026;28;20230;-88
2022/01/16 15:36:18;;;;;;;14.80;9.15;;;5.90;99.90;;;;;;4984726;28;20329;-87
2022/01/16 15:38:46;;;;;;;12.70;8.85;;;6.00;99.90;;;;;;4984022;28;20786;-87
2022/01/16 15:41:13;;;;;;;13.52;8.68;;;5.80;99.90;;;;;;4984242;28;20219;-87
2022/01/16 15:43:40;;;;;;;13.70;8.77;;;5.90;99.90;;;;;;4985353;28;20268;-87
2022/01/16 15:46:07;;;;;;;13.32;9.00;;;5.90;99.90;;;;;;4982764;28;20212;-87
2022/01/16 15:48:34;;;;;;;12.00;8.50;;;5.80;99.90;;;;;;4982679;28;20230;-88
2022/01/16 15:51:02;;;;;;;13.43;8.90;;;5.90;99.90;;;;;;4994152;28;20208;-87
2022/01/16 15:53:29;;;;;;;12.00;8.45;;;5.60;99.90;;;;;;4987892;28;20196;-87
2022/01/16 15:55:57;;;;;;;13.90;8.40;;;5.80;99.90;;;;;;4983298;28;20637;-87
2022/01/16 15:58:24;;;;;;;15.07;9.27;;;6.10;99.90;;;;;;4985174;28;20232;-88
2022/01/16 16:00:51;;;;;;;17.95;9.13;;;5.70;99.90;;;;;;4984532;28;20216;-87
2022/01/16 16:03:18;;;;;;;16.30;10.43;;;5.70;99.90;;;;;;4981735;28;20248;-86
2022/01/16 16:05:45;;;;;;;12.85;7.65;;;5.50;99.90;;;;;;4984762;28;20266;-87
2022/01/16 16:08:12;;;;;;;13.70;9.25;;;6.00;99.90;;;;;;4995303;28;20218;-89
2022/01/16 16:10:39;;;;;;;13.35;8.30;;;5.70;99.90;;;;;;4988249;28;20236;-87
2022/01/16 16:13:08;;;;;;;14.20;8.27;;;6.00;99.90;;;;;;4986644;28;20290;-88
2022/01/16 16:15:37;;;;;;;13.70;8.93;;;5.60;99.90;;;;;;4984224;28;20223;-87
2022/01/16 16:18:04;;;;;;;13.98;7.93;;;6.20;99.90;;;;;;4983426;28;20653;-87
2022/01/16 16:20:31;;;;;;;12.75;7.57;;;5.70;99.90;;;;;;4985331;28;20274;-87
2022/01/16 16:23:00;;;;;;;12.13;7.65;;;6.10;99.90;;;;;;4987696;28;20229;-87
2022/01/16 16:25:30;;;;;;;14.95;9.93;;;5.80;99.90;;;;;;4987640;28;20633;-86
2022/01/16 16:27:59;;;;;;;12.23;8.02;;;6.20;99.90;;;;;;4986690;28;20246;-87
2022/01/16 16:30:36;;;;;;;11.07;7.00;;;6.20;99.90;;;;;;4991298;28;20218;-86
2022/01/16 16:33:03;;;;;;;15.77;8.52;;;6.00;99.90;;;;;;4988667;28;20198;-87
2022/01/16 16:35:31;;;;;;;16.45;9.18;;;6.00;99.90;;;;;;4988485;28;20223;-87
2022/01/16 16:37:59;;;;;;;13.18;8.73;;;6.00;99.90;;;;;;4990532;28;20257;-88
2022/01/16 16:40:27;;;;;;;14.60;8.40;;;6.00;99.90;;;;;;4993615;28;20277;-86
2022/01/16 16:42:54;;;;;;;15.10;8.73;;;6.10;99.90;;;;;;4993444;28;20658;-87
2022/01/16 16:45:21;;;;;;;17.77;8.73;;;5.70;99.90;;;;;;4986227;28;20246;-87
2022/01/16 16:47:49;;;;;;;11.98;7.88;;;5.90;99.90;;;;;;4986099;28;20271;-86
2022/01/16 16:50:17;;;;;;;14.10;8.02;;;6.30;99.90;;;;;;4989970;28;20214;-87
2022/01/16 16:52:44;;;;;;;13.15;8.63;;;5.80;99.90;;;;;;4988979;28;20207;-88
2022/01/16 16:55:12;;;;;;;11.95;7.30;;;6.10;99.90;;;;;;4988320;28;20724;-87
2022/01/16 16:57:40;;;;;;;15.00;7.10;;;6.30;99.90;;;;;;4983618;28;20245;-86
2022/01/16 17:00:11;;;;;;;8.82;6.63;;;6.60;99.90;;;;;;4984820;28;20285;-87
2022/01/16 17:02:38;;;;;;;15.23;7.18;;;6.60;99.90;;;;;;4983678;28;20196;-88
2022/01/16 17:05:09;;;;;;;11.27;6.75;;;6.40;99.90;;;;;;4985083;28;20218;-88
2022/01/16 17:07:36;;;;;;;11.30;6.68;;;6.40;99.90;;;;;;4995986;28;20256;-88
2022/01/16 17:10:04;;;;;;;9.75;6.70;;;6.50;99.90;;;;;;4997271;28;20194;-88
2022/01/16 17:12:32;;;;;;;11.20;6.97;;;6.70;99.90;;;;;;4990658;28;20318;-88
2022/01/16 17:14:58;;;;;;;12.40;7.45;;;6.40;99.90;;;;;;4996814;28;20218;-87
2022/01/16 17:17:26;;;;;;;11.30;7.57;;;6.80;99.90;;;;;;4993696;28;20245;-86
2022/01/16 17:19:53;;;;;;;12.13;8.27;;;6.30;99.90;;;;;;4986251;28;20818;-87
2022/01/16 17:22:23;;;;;;;17.13;8.85;;;6.60;99.90;;;;;;4985002;28;20269;-87
2022/01/16 17:24:53;;;;;;;11.63;7.70;;;6.50;99.90;;;;;;4985495;28;20236;-87
2022/01/16 17:27:21;;;;;;;11.77;8.05;;;6.40;99.90;;;;;;4991567;28;20196;-85
2022/01/16 17:29:49;;;;;;;10.98;7.43;;;6.20;99.90;;;;;;4990910;28;20664;-88
2022/01/16 17:32:22;;;;;;;12.90;8.93;;;6.20;99.90;;;;;;4983882;28;20242;-86
2022/01/16 17:34:49;;;;;;;14.30;9.05;;;6.00;99.90;;;;;;4985509;28;20187;-88
2022/01/16 17:37:15;;;;;;;14.55;9.18;;;6.30;99.90;;;;;;4985723;28;20325;-88
2022/01/16 17:39:44;;;;;;;15.65;10.45;;;5.80;99.90;;;;;;4996277;28;20210;-88
2022/01/16 17:42:15;;;;;;;15.77;10.88;;;6.20;99.90;;;;;;4996319;28;20209;-88
2022/01/16 17:44:42;;;;;;;15.93;10.32;;;6.00;99.90;;;;;;4997605;28;20266;-87